sensor_id;sensor_type;location;lat;lon;timestamp;P1;durP1;ratioP1;P2;durP2;ratioP2
15681;SDS011;7941;50.966;6.978;2023-02-28T00:00:23;5.00;;;4.20;;
15681;SDS011;7941;50.966;6.978;2023-02-28T00:02:50;6.67;;;3.90;;
15681;SDS011;7941;50.966;6.978;2023-02-28T00:05:17;4.57;;;3.97;;
15681;SDS011;7941;50.966;6.978;2023-02-28T00:07:44;3.90;;;3.40;;
15681;SDS011;7941;50.966;6.978;2023-02-28T00:10:11;4.43;;;3.80;;
15681;SDS011;7941;50.966;6.978;2023-02-28T00:12:38;5.53;;;4.50;;
15681;SDS011;7941;50.966;6.978;2023-02-28T00:15:05;5.10;;;4.60;;
15681;SDS011;7941;50.966;6.978;2023-02-28T00:17:31;4.70;;;4.30;;
15681;SDS011;7941;50.966;6.978;2023-02-28T00:19:57;5.77;;;4.30;;
15681;SDS011;7941;50.966;6.978;2023-02-28T00:22:37;4.17;;;3.87;;
15681;SDS011;7941;50.966;6.978;2023-02-28T00:25:03;5.27;;;4.57;;
15681;SDS011;7941;50.966;6.978;2023-02-28T00:27:31;5.60;;;4.40;;
15681;SDS011;7941;50.966;6.978;2023-02-28T00:29:58;5.97;;;4.00;;
15681;SDS011;7941;50.966;6.978;2023-02-28T00:32:24;4.60;;;3.67;;
15681;SDS011;7941;50.966;6.978;2023-02-28T00:34:50;3.50;;;3.30;;
15681;SDS011;7941;50.966;6.978;2023-02-28T00:37:16;4.40;;;3.77;;
15681;SDS011;7941;50.966;6.978;2023-02-28T00:39:42;4.07;;;3.63;;
15681;SDS011;7941;50.966;6.978;2023-02-28T00:42:08;4.03;;;3.63;;
15681;SDS011;7941;50.966;6.978;2023-02-28T00:44:34;4.37;;;3.77;;
15681;SDS011;7941;50.966;6.978;2023-02-28T00:47:01;4.83;;;3.87;;
15681;SDS011;7941;50.966;6.978;2023-02-28T00:49:27;9.07;;;4.93;;
15681;SDS011;7941;50.966;6.978;2023-02-28T00:51:54;4.40;;;4.00;;
15681;SDS011;7941;50.966;6.978;2023-02-28T00:54:20;5.67;;;3.97;;
15681;SDS011;7941;50.966;6.978;2023-02-28T00:56:46;4.20;;;3.80;;
15681;SDS011;7941;50.966;6.978;2023-02-28T00:59:13;4.80;;;4.37;;
15681;SDS011;7941;50.966;6.978;2023-02-28T01:01:40;4.50;;;3.90;;
15681;SDS011;7941;50.966;6.978;2023-02-28T01:04:06;4.97;;;4.23;;
15681;SDS011;7941;50.966;6.978;2023-02-28T01:06:32;4.53;;;4.13;;
15681;SDS011;7941;50.966;6.978;2023-02-28T01:08:58;5.60;;;3.83;;
15681;SDS011;7941;50.966;6.978;2023-02-28T01:11:25;4.00;;;3.70;;
15681;SDS011;7941;50.966;6.978;2023-02-28T01:13:51;4.67;;;3.80;;
15681;SDS011;7941;50.966;6.978;2023-02-28T01:16:17;5.67;;;4.00;;
15681;SDS011;7941;50.966;6.978;2023-02-28T01:18:44;4.90;;;4.47;;
15681;SDS011;7941;50.966;6.978;2023-02-28T01:21:11;4.80;;;3.83;;
15681;SDS011;7941;50.966;6.978;2023-02-28T01:23:38;3.93;;;3.63;;
15681;SDS011;7941;50.966;6.978;2023-02-28T01:26:08;7.97;;;4.20;;
15681;SDS011;7941;50.966;6.978;2023-02-28T01:28:35;4.40;;;4.00;;
15681;SDS011;7941;50.966;6.978;2023-02-28T01:31:01;5.43;;;4.20;;
15681;SDS011;7941;50.966;6.978;2023-02-28T01:33:28;4.67;;;4.20;;
15681;SDS011;7941;50.966;6.978;2023-02-28T01:35:57;6.30;;;3.57;;
15681;SDS011;7941;50.966;6.978;2023-02-28T01:38:23;3.97;;;3.63;;
15681;SDS011;7941;50.966;6.978;2023-02-28T01:40:50;6.63;;;3.93;;
15681;SDS011;7941;50.966;6.978;2023-02-28T01:43:30;4.47;;;4.00;;
15681;SDS011;7941;50.966;6.978;2023-02-28T01:45:57;4.93;;;4.10;;
15681;SDS011;7941;50.966;6.978;2023-02-28T01:48:31;3.70;;;3.40;;
15681;SDS011;7941;50.966;6.978;2023-02-28T01:50:59;4.83;;;4.07;;
15681;SDS011;7941;50.966;6.978;2023-02-28T01:53:36;4.97;;;4.10;;
15681;SDS011;7941;50.966;6.978;2023-02-28T01:56:06;6.80;;;3.90;;
15681;SDS011;7941;50.966;6.978;2023-02-28T01:58:33;4.63;;;3.80;;
15681;SDS011;7941;50.966;6.978;2023-02-28T02:00:59;5.83;;;4.00;;
15681;SDS011;7941;50.966;6.978;2023-02-28T02:03:28;4.63;;;4.23;;
15681;SDS011;7941;50.966;6.978;2023-02-28T02:05:55;4.37;;;3.97;;
15681;SDS011;7941;50.966;6.978;2023-02-28T02:08:22;4.60;;;4.20;;
15681;SDS011;7941;50.966;6.978;2023-02-28T02:10:54;4.40;;;4.07;;
15681;SDS011;7941;50.966;6.978;2023-02-28T02:16:00;4.47;;;4.00;;
15681;SDS011;7941;50.966;6.978;2023-02-28T02:37:14;6.13;;;4.13;;
15681;SDS011;7941;50.966;6.978;2023-02-28T02:42:14;3.20;;;2.93;;
15681;SDS011;7941;50.966;6.978;2023-02-28T02:44:46;4.60;;;3.37;;
15681;SDS011;7941;50.966;6.978;2023-02-28T02:47:15;4.40;;;3.60;;
15681;SDS011;7941;50.966;6.978;2023-02-28T02:49:43;5.00;;;3.80;;
15681;SDS011;7941;50.966;6.978;2023-02-28T02:52:12;4.17;;;3.40;;
15681;SDS011;7941;50.966;6.978;2023-02-28T02:54:40;3.60;;;3.30;;
15681;SDS011;7941;50.966;6.978;2023-02-28T02:57:08;3.70;;;3.40;;
15681;SDS011;7941;50.966;6.978;2023-02-28T02:59:37;3.80;;;3.50;;
15681;SDS011;7941;50.966;6.978;2023-02-28T03:02:05;4.70;;;3.40;;
15681;SDS011;7941;50.966;6.978;2023-02-28T03:04:36;5.03;;;3.73;;
15681;SDS011;7941;50.966;6.978;2023-02-28T03:07:03;5.80;;;4.00;;
15681;SDS011;7941;50.966;6.978;2023-02-28T03:09:32;3.83;;;3.37;;
15681;SDS011;7941;50.966;6.978;2023-02-28T03:11:58;5.93;;;4.10;;
15681;SDS011;7941;50.966;6.978;2023-02-28T03:17:20;3.83;;;3.53;;
15681;SDS011;7941;50.966;6.978;2023-02-28T03:19:59;3.90;;;3.60;;
15681;SDS011;7941;50.966;6.978;2023-02-28T03:22:33;5.43;;;3.87;;
15681;SDS011;7941;50.966;6.978;2023-02-28T03:25:47;5.37;;;3.50;;
15681;SDS011;7941;50.966;6.978;2023-02-28T03:35:31;4.13;;;3.83;;
15681;SDS011;7941;50.966;6.978;2023-02-28T03:38:00;4.90;;;4.23;;
15681;SDS011;7941;50.966;6.978;2023-02-28T03:40:30;3.93;;;3.50;;
15681;SDS011;7941;50.966;6.978;2023-02-28T03:43:07;4.53;;;3.80;;
15681;SDS011;7941;50.966;6.978;2023-02-28T03:45:36;5.30;;;3.40;;
15681;SDS011;7941;50.966;6.978;2023-02-28T03:50:36;4.87;;;4.00;;
15681;SDS011;7941;50.966;6.978;2023-02-28T03:55:42;4.67;;;4.17;;
15681;SDS011;7941;50.966;6.978;2023-02-28T04:00:58;4.57;;;4.03;;
15681;SDS011;7941;50.966;6.978;2023-02-28T04:03:25;5.57;;;4.23;;
15681;SDS011;7941;50.966;6.978;2023-02-28T04:05:52;4.03;;;3.73;;
15681;SDS011;7941;50.966;6.978;2023-02-28T04:08:19;4.83;;;4.10;;
15681;SDS011;7941;50.966;6.978;2023-02-28T04:10:45;5.87;;;4.23;;
15681;SDS011;7941;50.966;6.978;2023-02-28T04:13:12;6.20;;;4.70;;
15681;SDS011;7941;50.966;6.978;2023-02-28T04:15:38;5.27;;;4.07;;
15681;SDS011;7941;50.966;6.978;2023-02-28T04:18:05;5.33;;;4.37;;
15681;SDS011;7941;50.966;6.978;2023-02-28T04:20:31;4.77;;;4.00;;
15681;SDS011;7941;50.966;6.978;2023-02-28T04:22:57;5.10;;;4.60;;
15681;SDS011;7941;50.966;6.978;2023-02-28T04:25:23;5.77;;;4.90;;
15681;SDS011;7941;50.966;6.978;2023-02-28T04:27:49;6.30;;;4.40;;
15681;SDS011;7941;50.966;6.978;2023-02-28T04:30:15;5.53;;;4.40;;
15681;SDS011;7941;50.966;6.978;2023-02-28T04:32:42;4.90;;;4.50;;
15681;SDS011;7941;50.966;6.978;2023-02-28T04:35:08;5.27;;;4.77;;
15681;SDS011;7941;50.966;6.978;2023-02-28T04:37:34;5.97;;;4.97;;
15681;SDS011;7941;50.966;6.978;2023-02-28T04:40:02;5.23;;;4.73;;
15681;SDS011;7941;50.966;6.978;2023-02-28T04:42:28;4.73;;;4.40;;
15681;SDS011;7941;50.966;6.978;2023-02-28T04:45:01;4.87;;;4.33;;
15681;SDS011;7941;50.966;6.978;2023-02-28T04:47:27;4.70;;;4.30;;
15681;SDS011;7941;50.966;6.978;2023-02-28T04:49:54;5.00;;;4.37;;
15681;SDS011;7941;50.966;6.978;2023-02-28T04:52:20;5.07;;;4.63;;
15681;SDS011;7941;50.966;6.978;2023-02-28T04:54:46;4.87;;;4.00;;
15681;SDS011;7941;50.966;6.978;2023-02-28T04:57:12;4.63;;;4.23;;
15681;SDS011;7941;50.966;6.978;2023-02-28T04:59:39;4.17;;;3.70;;
15681;SDS011;7941;50.966;6.978;2023-02-28T05:02:05;6.43;;;4.50;;
15681;SDS011;7941;50.966;6.978;2023-02-28T05:04:35;5.87;;;4.33;;
15681;SDS011;7941;50.966;6.978;2023-02-28T05:07:01;5.10;;;4.60;;
15681;SDS011;7941;50.966;6.978;2023-02-28T05:09:28;5.93;;;4.50;;
15681;SDS011;7941;50.966;6.978;2023-02-28T05:11:54;4.33;;;4.00;;
15681;SDS011;7941;50.966;6.978;2023-02-28T05:14:20;6.03;;;4.57;;
15681;SDS011;7941;50.966;6.978;2023-02-28T05:16:47;5.03;;;4.63;;
15681;SDS011;7941;50.966;6.978;2023-02-28T05:19:13;4.50;;;4.10;;
15681;SDS011;7941;50.966;6.978;2023-02-28T05:24:34;3.97;;;3.57;;
15681;SDS011;7941;50.966;6.978;2023-02-28T05:27:00;4.73;;;4.20;;
15681;SDS011;7941;50.966;6.978;2023-02-28T05:29:26;4.67;;;4.27;;
15681;SDS011;7941;50.966;6.978;2023-02-28T05:31:53;4.63;;;3.90;;
15681;SDS011;7941;50.966;6.978;2023-02-28T05:34:19;4.50;;;3.80;;
15681;SDS011;7941;50.966;6.978;2023-02-28T05:36:45;6.47;;;4.20;;
15681;SDS011;7941;50.966;6.978;2023-02-28T05:39:11;4.33;;;4.03;;
15681;SDS011;7941;50.966;6.978;2023-02-28T05:41:38;4.37;;;4.07;;
15681;SDS011;7941;50.966;6.978;2023-02-28T05:44:05;4.37;;;3.97;;
15681;SDS011;7941;50.966;6.978;2023-02-28T05:46:31;5.37;;;4.33;;
15681;SDS011;7941;50.966;6.978;2023-02-28T05:48:57;4.70;;;4.03;;
15681;SDS011;7941;50.966;6.978;2023-02-28T05:51:25;4.03;;;3.73;;
15681;SDS011;7941;50.966;6.978;2023-02-28T05:53:51;4.27;;;3.87;;
15681;SDS011;7941;50.966;6.978;2023-02-28T05:56:17;4.20;;;3.50;;
15681;SDS011;7941;50.966;6.978;2023-02-28T05:58:43;4.37;;;3.97;;
15681;SDS011;7941;50.966;6.978;2023-02-28T06:03:55;4.20;;;3.70;;
15681;SDS011;7941;50.966;6.978;2023-02-28T06:06:21;4.23;;;3.73;;
15681;SDS011;7941;50.966;6.978;2023-02-28T06:08:47;4.13;;;3.73;;
15681;SDS011;7941;50.966;6.978;2023-02-28T06:11:13;4.10;;;3.73;;
15681;SDS011;7941;50.966;6.978;2023-02-28T06:13:39;4.03;;;3.37;;
15681;SDS011;7941;50.966;6.978;2023-02-28T06:16:06;4.10;;;3.80;;
15681;SDS011;7941;50.966;6.978;2023-02-28T06:18:32;4.33;;;4.00;;
15681;SDS011;7941;50.966;6.978;2023-02-28T06:21:01;4.57;;;4.17;;
15681;SDS011;7941;50.966;6.978;2023-02-28T06:23:27;4.43;;;4.07;;
15681;SDS011;7941;50.966;6.978;2023-02-28T06:25:53;6.40;;;4.70;;
15681;SDS011;7941;50.966;6.978;2023-02-28T06:28:24;6.13;;;4.97;;
15681;SDS011;7941;50.966;6.978;2023-02-28T06:30:50;5.30;;;4.50;;
15681;SDS011;7941;50.966;6.978;2023-02-28T06:33:16;4.60;;;4.20;;
15681;SDS011;7941;50.966;6.978;2023-02-28T06:35:52;4.57;;;4.13;;
15681;SDS011;7941;50.966;6.978;2023-02-28T06:38:18;4.63;;;4.00;;
15681;SDS011;7941;50.966;6.978;2023-02-28T06:40:44;4.37;;;4.07;;
15681;SDS011;7941;50.966;6.978;2023-02-28T06:43:18;4.07;;;3.77;;
15681;SDS011;7941;50.966;6.978;2023-02-28T06:45:44;8.47;;;4.07;;
15681;SDS011;7941;50.966;6.978;2023-02-28T06:48:10;5.33;;;4.00;;
15681;SDS011;7941;50.966;6.978;2023-02-28T06:50:36;6.17;;;4.07;;
15681;SDS011;7941;50.966;6.978;2023-02-28T06:53:02;4.37;;;3.63;;
15681;SDS011;7941;50.966;6.978;2023-02-28T06:55:28;4.43;;;4.03;;
15681;SDS011;7941;50.966;6.978;2023-02-28T06:57:54;4.50;;;4.10;;
15681;SDS011;7941;50.966;6.978;2023-02-28T07:00:21;4.43;;;4.00;;
15681;SDS011;7941;50.966;6.978;2023-02-28T07:02:47;4.13;;;3.83;;
15681;SDS011;7941;50.966;6.978;2023-02-28T07:05:13;4.00;;;3.67;;
15681;SDS011;7941;50.966;6.978;2023-02-28T07:07:40;3.77;;;3.47;;
15681;SDS011;7941;50.966;6.978;2023-02-28T07:10:09;4.20;;;3.90;;
15681;SDS011;7941;50.966;6.978;2023-02-28T07:12:36;3.57;;;3.33;;
15681;SDS011;7941;50.966;6.978;2023-02-28T07:15:03;4.40;;;4.00;;
15681;SDS011;7941;50.966;6.978;2023-02-28T07:17:29;4.60;;;4.20;;
15681;SDS011;7941;50.966;6.978;2023-02-28T07:19:55;5.77;;;4.47;;
15681;SDS011;7941;50.966;6.978;2023-02-28T07:22:22;4.17;;;3.77;;
15681;SDS011;7941;50.966;6.978;2023-02-28T07:24:48;4.43;;;4.10;;
15681;SDS011;7941;50.966;6.978;2023-02-28T07:27:14;4.37;;;3.97;;
15681;SDS011;7941;50.966;6.978;2023-02-28T07:29:48;4.00;;;3.60;;
15681;SDS011;7941;50.966;6.978;2023-02-28T07:32:14;4.33;;;4.03;;
15681;SDS011;7941;50.966;6.978;2023-02-28T07:34:41;3.90;;;3.60;;
15681;SDS011;7941;50.966;6.978;2023-02-28T07:37:07;5.47;;;3.97;;
15681;SDS011;7941;50.966;6.978;2023-02-28T07:39:33;4.43;;;4.03;;
15681;SDS011;7941;50.966;6.978;2023-02-28T07:41:59;4.03;;;3.73;;
15681;SDS011;7941;50.966;6.978;2023-02-28T07:44:28;3.87;;;3.57;;
15681;SDS011;7941;50.966;6.978;2023-02-28T07:46:54;3.97;;;3.60;;
15681;SDS011;7941;50.966;6.978;2023-02-28T07:49:21;4.60;;;3.70;;
15681;SDS011;7941;50.966;6.978;2023-02-28T07:51:47;3.77;;;3.37;;
15681;SDS011;7941;50.966;6.978;2023-02-28T07:54:13;4.37;;;3.97;;
15681;SDS011;7941;50.966;6.978;2023-02-28T07:56:39;4.07;;;3.73;;
15681;SDS011;7941;50.966;6.978;2023-02-28T07:59:05;3.93;;;3.57;;
15681;SDS011;7941;50.966;6.978;2023-02-28T08:01:32;3.87;;;3.57;;
15681;SDS011;7941;50.966;6.978;2023-02-28T08:03:58;8.03;;;3.93;;
15681;SDS011;7941;50.966;6.978;2023-02-28T08:06:25;3.13;;;2.93;;
15681;SDS011;7941;50.966;6.978;2023-02-28T08:08:52;3.40;;;3.13;;
15681;SDS011;7941;50.966;6.978;2023-02-28T08:11:19;3.80;;;3.50;;
15681;SDS011;7941;50.966;6.978;2023-02-28T08:13:45;4.13;;;3.30;;
15681;SDS011;7941;50.966;6.978;2023-02-28T08:16:12;3.53;;;3.23;;
15681;SDS011;7941;50.966;6.978;2023-02-28T08:18:46;3.83;;;3.50;;
15681;SDS011;7941;50.966;6.978;2023-02-28T08:21:13;3.83;;;3.27;;
15681;SDS011;7941;50.966;6.978;2023-02-28T08:23:39;5.20;;;4.70;;
15681;SDS011;7941;50.966;6.978;2023-02-28T08:26:05;3.87;;;3.57;;
15681;SDS011;7941;50.966;6.978;2023-02-28T08:28:32;4.23;;;3.20;;
15681;SDS011;7941;50.966;6.978;2023-02-28T08:30:58;3.20;;;3.00;;
15681;SDS011;7941;50.966;6.978;2023-02-28T08:33:27;3.23;;;3.03;;
15681;SDS011;7941;50.966;6.978;2023-02-28T08:35:53;4.47;;;4.07;;
15681;SDS011;7941;50.966;6.978;2023-02-28T08:38:20;7.50;;;3.87;;
15681;SDS011;7941;50.966;6.978;2023-02-28T08:40:46;3.10;;;2.80;;
15681;SDS011;7941;50.966;6.978;2023-02-28T08:43:12;3.70;;;2.70;;
15681;SDS011;7941;50.966;6.978;2023-02-28T08:45:39;3.50;;;3.20;;
15681;SDS011;7941;50.966;6.978;2023-02-28T08:48:05;5.33;;;3.20;;
15681;SDS011;7941;50.966;6.978;2023-02-28T08:50:31;3.80;;;3.50;;
15681;SDS011;7941;50.966;6.978;2023-02-28T08:52:57;3.00;;;2.80;;
15681;SDS011;7941;50.966;6.978;2023-02-28T08:55:24;2.80;;;2.60;;
15681;SDS011;7941;50.966;6.978;2023-02-28T08:57:50;2.30;;;2.20;;
15681;SDS011;7941;50.966;6.978;2023-02-28T09:00:18;2.87;;;2.67;;
15681;SDS011;7941;50.966;6.978;2023-02-28T09:02:44;2.67;;;2.47;;
15681;SDS011;7941;50.966;6.978;2023-02-28T09:05:10;2.83;;;2.63;;
15681;SDS011;7941;50.966;6.978;2023-02-28T09:07:37;2.50;;;2.30;;
15681;SDS011;7941;50.966;6.978;2023-02-28T09:10:03;2.83;;;2.63;;
15681;SDS011;7941;50.966;6.978;2023-02-28T09:12:31;2.40;;;2.30;;
15681;SDS011;7941;50.966;6.978;2023-02-28T09:14:58;2.63;;;2.43;;
15681;SDS011;7941;50.966;6.978;2023-02-28T09:17:24;3.07;;;2.73;;
15681;SDS011;7941;50.966;6.978;2023-02-28T09:19:50;3.17;;;2.97;;
15681;SDS011;7941;50.966;6.978;2023-02-28T09:22:17;3.17;;;2.97;;
15681;SDS011;7941;50.966;6.978;2023-02-28T09:24:43;2.87;;;2.60;;
15681;SDS011;7941;50.966;6.978;2023-02-28T09:27:10;2.50;;;2.30;;
15681;SDS011;7941;50.966;6.978;2023-02-28T09:29:36;2.23;;;2.03;;
15681;SDS011;7941;50.966;6.978;2023-02-28T09:32:02;2.80;;;2.70;;
15681;SDS011;7941;50.966;6.978;2023-02-28T09:34:30;4.83;;;2.63;;
15681;SDS011;7941;50.966;6.978;2023-02-28T09:36:57;3.40;;;2.30;;
15681;SDS011;7941;50.966;6.978;2023-02-28T09:39:23;2.87;;;2.60;;
15681;SDS011;7941;50.966;6.978;2023-02-28T09:41:52;2.63;;;2.43;;
15681;SDS011;7941;50.966;6.978;2023-02-28T09:46:50;2.67;;;2.40;;
15681;SDS011;7941;50.966;6.978;2023-02-28T09:49:23;2.37;;;2.27;;
15681;SDS011;7941;50.966;6.978;2023-02-28T09:54:18;2.40;;;2.20;;
15681;SDS011;7941;50.966;6.978;2023-02-28T09:56:45;2.70;;;2.17;;
15681;SDS011;7941;50.966;6.978;2023-02-28T10:06:43;2.90;;;2.70;;
15681;SDS011;7941;50.966;6.978;2023-02-28T10:09:11;2.77;;;2.30;;
15681;SDS011;7941;50.966;6.978;2023-02-28T10:11:40;3.73;;;2.57;;
15681;SDS011;7941;50.966;6.978;2023-02-28T10:19:06;2.90;;;2.60;;
15681;SDS011;7941;50.966;6.978;2023-02-28T10:21:37;2.43;;;2.23;;
15681;SDS011;7941;50.966;6.978;2023-02-28T10:26:43;4.73;;;2.70;;
15681;SDS011;7941;50.966;6.978;2023-02-28T10:29:09;3.40;;;3.10;;
15681;SDS011;7941;50.966;6.978;2023-02-28T10:31:36;2.70;;;2.50;;
15681;SDS011;7941;50.966;6.978;2023-02-28T10:34:02;2.63;;;2.43;;
15681;SDS011;7941;50.966;6.978;2023-02-28T10:36:29;3.27;;;2.63;;
15681;SDS011;7941;50.966;6.978;2023-02-28T10:38:55;3.07;;;2.87;;
15681;SDS011;7941;50.966;6.978;2023-02-28T10:44:12;6.50;;;5.47;;
15681;SDS011;7941;50.966;6.978;2023-02-28T10:46:39;4.00;;;3.00;;
15681;SDS011;7941;50.966;6.978;2023-02-28T10:49:07;2.43;;;2.30;;
15681;SDS011;7941;50.966;6.978;2023-02-28T10:51:39;2.90;;;2.70;;
15681;SDS011;7941;50.966;6.978;2023-02-28T10:54:05;2.90;;;2.70;;
15681;SDS011;7941;50.966;6.978;2023-02-28T10:56:40;2.77;;;2.57;;
15681;SDS011;7941;50.966;6.978;2023-02-28T11:01:51;2.73;;;2.53;;
15681;SDS011;7941;50.966;6.978;2023-02-28T11:07:22;3.17;;;2.87;;
15681;SDS011;7941;50.966;6.978;2023-02-28T11:09:50;3.70;;;2.50;;
15681;SDS011;7941;50.966;6.978;2023-02-28T11:12:27;4.23;;;3.20;;
15681;SDS011;7941;50.966;6.978;2023-02-28T11:15:04;3.10;;;2.90;;
15681;SDS011;7941;50.966;6.978;2023-02-28T11:17:31;3.10;;;2.80;;
15681;SDS011;7941;50.966;6.978;2023-02-28T11:19:59;3.43;;;3.07;;
15681;SDS011;7941;50.966;6.978;2023-02-28T11:22:29;3.27;;;2.80;;
15681;SDS011;7941;50.966;6.978;2023-02-28T11:24:59;2.40;;;2.30;;
15681;SDS011;7941;50.966;6.978;2023-02-28T11:29:57;2.70;;;2.47;;
15681;SDS011;7941;50.966;6.978;2023-02-28T11:32:27;3.00;;;2.80;;
15681;SDS011;7941;50.966;6.978;2023-02-28T11:37:37;2.77;;;2.57;;
15681;SDS011;7941;50.966;6.978;2023-02-28T11:40:17;2.97;;;2.57;;
15681;SDS011;7941;50.966;6.978;2023-02-28T11:43:06;2.40;;;1.87;;
15681;SDS011;7941;50.966;6.978;2023-02-28T11:53:35;2.83;;;2.63;;
15681;SDS011;7941;50.966;6.978;2023-02-28T11:58:43;2.53;;;2.33;;
15681;SDS011;7941;50.966;6.978;2023-02-28T12:01:18;3.00;;;2.70;;
15681;SDS011;7941;50.966;6.978;2023-02-28T12:08:46;2.63;;;2.20;;
15681;SDS011;7941;50.966;6.978;2023-02-28T12:19:16;2.80;;;2.13;;
15681;SDS011;7941;50.966;6.978;2023-02-28T12:26:58;2.50;;;2.30;;
15681;SDS011;7941;50.966;6.978;2023-02-28T12:29:27;2.83;;;2.47;;
15681;SDS011;7941;50.966;6.978;2023-02-28T12:32:05;2.80;;;2.40;;
15681;SDS011;7941;50.966;6.978;2023-02-28T12:34:33;3.60;;;2.70;;
15681;SDS011;7941;50.966;6.978;2023-02-28T12:37:04;2.57;;;2.40;;
15681;SDS011;7941;50.966;6.978;2023-02-28T12:39:33;3.20;;;2.77;;
15681;SDS011;7941;50.966;6.978;2023-02-28T12:42:03;6.63;;;2.40;;
15681;SDS011;7941;50.966;6.978;2023-02-28T12:46:58;3.63;;;2.90;;
15681;SDS011;7941;50.966;6.978;2023-02-28T12:51:56;3.37;;;2.77;;
15681;SDS011;7941;50.966;6.978;2023-02-28T12:57:22;2.97;;;2.53;;
15681;SDS011;7941;50.966;6.978;2023-02-28T12:59:52;2.63;;;2.43;;
15681;SDS011;7941;50.966;6.978;2023-02-28T13:10:45;3.17;;;2.87;;
15681;SDS011;7941;50.966;6.978;2023-02-28T13:13:15;3.43;;;3.00;;
15681;SDS011;7941;50.966;6.978;2023-02-28T13:15:56;3.43;;;3.13;;
15681;SDS011;7941;50.966;6.978;2023-02-28T13:18:56;3.17;;;2.90;;
15681;SDS011;7941;50.966;6.978;2023-02-28T13:21:26;3.33;;;3.03;;
15681;SDS011;7941;50.966;6.978;2023-02-28T13:34:20;4.30;;;3.03;;
15681;SDS011;7941;50.966;6.978;2023-02-28T13:36:46;3.27;;;3.07;;
15681;SDS011;7941;50.966;6.978;2023-02-28T13:42:00;2.77;;;2.57;;
15681;SDS011;7941;50.966;6.978;2023-02-28T13:47:39;2.90;;;2.70;;
15681;SDS011;7941;50.966;6.978;2023-02-28T13:50:21;3.33;;;2.87;;
15681;SDS011;7941;50.966;6.978;2023-02-28T13:52:53;3.33;;;3.03;;
15681;SDS011;7941;50.966;6.978;2023-02-28T14:08:34;4.37;;;2.80;;
15681;SDS011;7941;50.966;6.978;2023-02-28T14:11:05;2.70;;;2.50;;
15681;SDS011;7941;50.966;6.978;2023-02-28T14:16:10;2.63;;;2.43;;
15681;SDS011;7941;50.966;6.978;2023-02-28T14:18:40;3.20;;;2.90;;
15681;SDS011;7941;50.966;6.978;2023-02-28T14:23:45;3.13;;;2.93;;
15681;SDS011;7941;50.966;6.978;2023-02-28T14:31:51;3.20;;;2.90;;
15681;SDS011;7941;50.966;6.978;2023-02-28T14:35:05;3.73;;;3.43;;
15681;SDS011;7941;50.966;6.978;2023-02-28T14:37:10;3.63;;;3.33;;
15681;SDS011;7941;50.966;6.978;2023-02-28T14:39:41;3.83;;;3.50;;
15681;SDS011;7941;50.966;6.978;2023-02-28T14:42:31;3.33;;;3.03;;
15681;SDS011;7941;50.966;6.978;2023-02-28T14:44:58;5.27;;;4.77;;
15681;SDS011;7941;50.966;6.978;2023-02-28T14:47:28;3.50;;;3.20;;
15681;SDS011;7941;50.966;6.978;2023-02-28T14:49:56;3.57;;;3.27;;
15681;SDS011;7941;50.966;6.978;2023-02-28T14:52:30;4.70;;;3.50;;
15681;SDS011;7941;50.966;6.978;2023-02-28T14:55:09;3.97;;;3.43;;
15681;SDS011;7941;50.966;6.978;2023-02-28T14:57:43;3.80;;;3.50;;
15681;SDS011;7941;50.966;6.978;2023-02-28T15:02:42;3.27;;;3.00;;
15681;SDS011;7941;50.966;6.978;2023-02-28T15:07:38;3.90;;;3.60;;
15681;SDS011;7941;50.966;6.978;2023-02-28T15:10:25;4.20;;;3.23;;
15681;SDS011;7941;50.966;6.978;2023-02-28T15:12:56;4.00;;;3.70;;
15681;SDS011;7941;50.966;6.978;2023-02-28T15:15:33;3.80;;;3.50;;
15681;SDS011;7941;50.966;6.978;2023-02-28T15:18:01;3.40;;;3.10;;
15681;SDS011;7941;50.966;6.978;2023-02-28T15:20:29;3.47;;;3.17;;
15681;SDS011;7941;50.966;6.978;2023-02-28T15:22:55;4.30;;;3.90;;
15681;SDS011;7941;50.966;6.978;2023-02-28T15:25:22;4.80;;;3.87;;
15681;SDS011;7941;50.966;6.978;2023-02-28T15:27:50;3.60;;;3.30;;
15681;SDS011;7941;50.966;6.978;2023-02-28T15:30:27;3.93;;;3.40;;
15681;SDS011;7941;50.966;6.978;2023-02-28T15:35:30;3.50;;;3.20;;
15681;SDS011;7941;50.966;6.978;2023-02-28T15:37:57;3.23;;;2.93;;
15681;SDS011;7941;50.966;6.978;2023-02-28T15:40:27;3.13;;;2.93;;
15681;SDS011;7941;50.966;6.978;2023-02-28T15:43:04;3.17;;;2.87;;
15681;SDS011;7941;50.966;6.978;2023-02-28T15:45:38;3.97;;;3.43;;
15681;SDS011;7941;50.966;6.978;2023-02-28T15:48:28;3.70;;;3.40;;
15681;SDS011;7941;50.966;6.978;2023-02-28T15:50:54;3.43;;;3.17;;
15681;SDS011;7941;50.966;6.978;2023-02-28T15:53:22;3.43;;;3.13;;
15681;SDS011;7941;50.966;6.978;2023-02-28T15:55:53;4.83;;;4.40;;
15681;SDS011;7941;50.966;6.978;2023-02-28T15:58:20;4.20;;;3.80;;
15681;SDS011;7941;50.966;6.978;2023-02-28T16:00:59;8.93;;;8.03;;
15681;SDS011;7941;50.966;6.978;2023-02-28T16:03:35;8.63;;;7.83;;
15681;SDS011;7941;50.966;6.978;2023-02-28T16:06:17;4.57;;;4.17;;
15681;SDS011;7941;50.966;6.978;2023-02-28T16:08:47;3.73;;;3.47;;
15681;SDS011;7941;50.966;6.978;2023-02-28T16:11:16;6.70;;;5.20;;
15681;SDS011;7941;50.966;6.978;2023-02-28T16:13:42;4.90;;;4.13;;
15681;SDS011;7941;50.966;6.978;2023-02-28T16:16:14;4.00;;;3.60;;
15681;SDS011;7941;50.966;6.978;2023-02-28T16:18:40;4.97;;;4.33;;
15681;SDS011;7941;50.966;6.978;2023-02-28T16:21:06;4.30;;;3.90;;
15681;SDS011;7941;50.966;6.978;2023-02-28T16:23:34;4.90;;;4.50;;
15681;SDS011;7941;50.966;6.978;2023-02-28T16:26:00;4.60;;;4.20;;
15681;SDS011;7941;50.966;6.978;2023-02-28T16:28:29;4.30;;;4.00;;
15681;SDS011;7941;50.966;6.978;2023-02-28T16:30:57;5.00;;;4.47;;
15681;SDS011;7941;50.966;6.978;2023-02-28T16:33:25;4.80;;;4.40;;
15681;SDS011;7941;50.966;6.978;2023-02-28T16:35:51;4.70;;;3.93;;
15681;SDS011;7941;50.966;6.978;2023-02-28T16:38:17;5.47;;;4.97;;
15681;SDS011;7941;50.966;6.978;2023-02-28T16:40:45;7.10;;;5.80;;
15681;SDS011;7941;50.966;6.978;2023-02-28T16:43:18;5.80;;;5.30;;
15681;SDS011;7941;50.966;6.978;2023-02-28T16:45:46;6.03;;;4.67;;
15681;SDS011;7941;50.966;6.978;2023-02-28T16:48:13;4.37;;;3.97;;
15681;SDS011;7941;50.966;6.978;2023-02-28T16:50:40;4.70;;;4.30;;
15681;SDS011;7941;50.966;6.978;2023-02-28T16:53:06;4.27;;;3.97;;
15681;SDS011;7941;50.966;6.978;2023-02-28T16:55:33;4.10;;;3.70;;
15681;SDS011;7941;50.966;6.978;2023-02-28T16:58:00;4.57;;;4.17;;
15681;SDS011;7941;50.966;6.978;2023-02-28T17:00:27;6.93;;;3.87;;
15681;SDS011;7941;50.966;6.978;2023-02-28T17:02:54;6.03;;;4.67;;
15681;SDS011;7941;50.966;6.978;2023-02-28T17:05:20;4.33;;;3.93;;
15681;SDS011;7941;50.966;6.978;2023-02-28T17:07:47;4.57;;;3.90;;
15681;SDS011;7941;50.966;6.978;2023-02-28T17:12:40;4.80;;;4.30;;
15681;SDS011;7941;50.966;6.978;2023-02-28T17:15:06;4.93;;;4.50;;
15681;SDS011;7941;50.966;6.978;2023-02-28T17:17:33;4.67;;;4.27;;
15681;SDS011;7941;50.966;6.978;2023-02-28T17:19:59;6.33;;;4.40;;
15681;SDS011;7941;50.966;6.978;2023-02-28T17:22:25;4.50;;;4.10;;
15681;SDS011;7941;50.966;6.978;2023-02-28T17:24:51;5.47;;;3.83;;
15681;SDS011;7941;50.966;6.978;2023-02-28T17:27:21;4.50;;;3.97;;
15681;SDS011;7941;50.966;6.978;2023-02-28T17:29:47;4.13;;;3.57;;
15681;SDS011;7941;50.966;6.978;2023-02-28T17:32:14;4.30;;;3.70;;
15681;SDS011;7941;50.966;6.978;2023-02-28T17:34:40;4.00;;;3.70;;
15681;SDS011;7941;50.966;6.978;2023-02-28T17:37:08;4.33;;;4.00;;
15681;SDS011;7941;50.966;6.978;2023-02-28T17:39:34;5.13;;;4.63;;
15681;SDS011;7941;50.966;6.978;2023-02-28T17:42:01;4.60;;;4.07;;
15681;SDS011;7941;50.966;6.978;2023-02-28T17:44:27;4.77;;;4.33;;
15681;SDS011;7941;50.966;6.978;2023-02-28T17:46:54;6.23;;;4.33;;
15681;SDS011;7941;50.966;6.978;2023-02-28T17:49:21;5.07;;;4.43;;
15681;SDS011;7941;50.966;6.978;2023-02-28T17:51:47;6.33;;;4.37;;
15681;SDS011;7941;50.966;6.978;2023-02-28T17:54:14;4.90;;;4.40;;
15681;SDS011;7941;50.966;6.978;2023-02-28T17:56:41;4.87;;;4.47;;
15681;SDS011;7941;50.966;6.978;2023-02-28T17:59:08;5.50;;;5.00;;
15681;SDS011;7941;50.966;6.978;2023-02-28T18:01:35;5.03;;;4.50;;
15681;SDS011;7941;50.966;6.978;2023-02-28T18:04:01;4.77;;;4.33;;